TOURFACTS.DK  
Stats and Facts from Tour de France.

Tour de France 2018 starts in 169 days
  Riders   Stages   Teams   Summits   Yearly  


 
Search by year

 2017 - St.21:
 14824 starters.
  5132 different riders.
  635 teams.
  2232 stages.
  454 restdays.
  439589.60 km.
  5653 abandonnees.


Top 3
GC
Christopher Froome86:20:55
Rigoberto Uran86:21:49
Romain Bardet86:23:15
Climb
Warren Barguil169 pt.
Primoz Roglic80 pt.
Thomas De Gendt64 pt.
Sprint
Michael Matthews359 pt.
André Greipel234 pt.
Edvald Boasson Hagen220 pt.
Youth
Simon Yates86:27:09
Louis Meintjes86:29:15
Emanuel Buchmann86:54:16
Facts from Tour de France 1975
  |   Stages.  |   Stage winners.  |   Days in yellow  |   Average speed.  |   Route.  |   Teams.  |   All riders.  |   Rookies.  |   Withdrawls.  |  

  |   GC.  |   Polka  |   Green  |   White  |   Summits. (In tour)  |   Summits. (Points)  |   Miscellaneous.  |  

Stage 10 on 07 - 07 - 1975
         Owning:    Eddy Merckx    
Pick a stage:  Pro 1a 1b 2 3 4 5 6 7 8 9a 9b 10 11 12 13 14 15 16 17 18 19 20 21 22
  AuchPau | Dist: 206.00 km.
Cat: 1Col du SoulorBELLucien Van Impe
20 points
 
Cat: 3Côte d'EsquillotITARoberto Poggiali
8 points
 

Average speed for all riders in stage:  33,345 km./hr.
    Place:Name:Team:Time:Km/h:
ITAFelice GimondiITABianchi-Campagnolo05:59:52  +  00:00:00=34,346 
ITARoberto PoggialiITAFilotex05:59:54  +  00:00:02=34,343 
FRAJean-Pierre DanguillaumeFRAPeugeot-BP-Michelin05:59:59  +  00:00:07=34,335 
4 FRABernard ThevenetFRAPeugeot-BP-Michelin06:00:00  +  00:00:08=34,333 
5 ITAFrancesco MoserITAFilotex06:00:00  +  00:00:08=34,333 
6 FRAYves HézardFRAGan-Mercier-Hutchinson06:00:00  +  00:00:08=34,333 
7 ITAGiovanni BattaglinITAJollyceramica06:00:00  +  00:00:08=34,333 
8 BELEddy MerckxITAMolteni06:00:00  +  00:00:08=34,333 
9 BELLucien Van ImpeFRAGitane-Campagnolo06:00:00  +  00:00:08=34,333 
10 FRARaymond PoulidorFRAGan-Mercier-Hutchinson06:00:00  +  00:00:08=34,333 
11 ESPFrancisco GaldosESPKas-Kaskol06:00:00  +  00:00:08=34,333 
12 SUIJosef FuchsITAFilotex06:00:00  +  00:00:08=34,333 
13 ESPVicente LopezESPKas-Kaskol06:00:00  +  00:00:08=34,333 
14 ESPPedro TorresESPSuper Ser06:00:00  +  00:00:08=34,333 
15 ESPLuis OcañaESPSuper Ser06:00:00  +  00:00:08=34,333 
16 NEDJoop ZoetemelkFRAGan-Mercier-Hutchinson06:00:00  +  00:00:08=34,333 
17 FRARaymond DelisleFRAPeugeot-BP-Michelin06:00:00  +  00:00:08=34,333 
18 ESPAndré RomeroFRAJobo-Wolber06:00:00  +  00:00:08=34,333 
19 FRAAlain SantyFRAGitane-Campagnolo06:00:00  +  00:00:08=34,333 
20 BELEduard JanssensITAMolteni06:00:00  +  00:00:08=34,333 
21 FRAFerdinand JulienPRTSporting-Sottomayor06:00:00  +  00:00:08=34,333 
22 BELJos De SchoenmaeckerITAMolteni06:04:50  +  00:04:58=33,878 
23 ESPMariano MartinezFRAGitane-Campagnolo06:04:50  +  00:04:58=33,878 
24 FRABernard BourreauFRAPeugeot-BP-Michelin06:04:50  +  00:04:58=33,878 
25 ESPJosé CasasESPSuper Ser06:04:50  +  00:04:58=33,878 
26 ESPSantiago LazcanoESPSuper Ser06:04:50  +  00:04:58=33,878 
27 ESPAntonio MenendezESPKas-Kaskol06:04:50  +  00:04:58=33,878 
28 NEDFedor Iwan Den HertogNLDFrisol-G.B.C.06:04:50  +  00:04:58=33,878 
29 PORJoaquim AgostinhoPRTSporting-Sottomayor06:04:50  +  00:04:58=33,878 
30 BELTony HoubrechtsITABianchi-Campagnolo06:04:50  +  00:04:58=33,878 
31 BELMichel PollentierBELCarpenter Confortluxe-Flandria06:04:50  +  00:04:58=33,878 
32 NORKnut KnudsenITAJollyceramica06:04:50  +  00:04:58=33,878 
33 FRAGeorges TalbourdetFRAGan-Mercier-Hutchinson06:04:50  +  00:04:58=33,878 
34 BELRonald De WitteBELCarpenter Confortluxe-Flandria06:04:50  +  00:04:58=33,878 
35 ESPLuis BalagueESPSuper Ser06:04:50  +  00:04:58=33,878 
36 FRAJosé CatieauFRAPeugeot-BP-Michelin06:04:50  +  00:04:58=33,878 
37 NEDHennie KuiperNLDFrisol-G.B.C.06:04:50  +  00:04:58=33,878 
38 FRAGuy SibilleFRAPeugeot-BP-Michelin06:04:50  +  00:04:58=33,878 
39 COLMartìn RodríguezITABianchi-Campagnolo06:04:50  +  00:04:58=33,878 
40 ITAGiovanni CavalcantiITABianchi-Campagnolo06:04:50  +  00:04:58=33,878 
41 FRAJoël MillardFRAJobo-Wolber06:04:50  +  00:04:58=33,878 
42 FRARaymond MartinFRAGitane-Campagnolo06:04:50  +  00:04:58=33,878 
43 ITAFabrizio FabbriITABianchi-Campagnolo06:04:50  +  00:04:58=33,878 
44 FRAHubert MathisBELMiko-De Gribaldy06:05:24  +  00:05:32=33,826 
45 ITAArnaldo CaverzasiITAFilotex06:05:24  +  00:05:32=33,826 
46 ITASigfrido FontanelliITAFilotex06:05:24  +  00:05:32=33,826 
47 NEDGerben KarstensFRAGitane-Campagnolo06:10:13  +  00:10:21=33,386 
48 ITAAlessio AntoniniITAJollyceramica06:10:13  +  00:10:21=33,386 
49 FRAFrancis CampanerPRTSporting-Sottomayor06:10:13  +  00:10:21=33,386 
50 ITARenato MarchettiITAFilotex06:10:13  +  00:10:21=33,386 
51 FRAPatrick PerretBELMiko-De Gribaldy06:10:13  +  00:10:21=33,386 
52 ESPGonzalo AjaESPKas-Kaskol06:10:13  +  00:10:21=33,386 
53 ESPCarlos MeleroESPKas-Kaskol06:10:13  +  00:10:21=33,386 
54 ESPJosé-Luis ViejoESPSuper Ser06:10:13  +  00:10:21=33,386 
55 NEDGerard VianenFRAGan-Mercier-Hutchinson06:10:13  +  00:10:21=33,386 
56 ITASimone FraccaroITABianchi-Campagnolo06:10:13  +  00:10:21=33,386 
57 BELJoseph SpruytITAMolteni06:10:13  +  00:10:21=33,386 
58 FRAMichel PerinFRAGan-Mercier-Hutchinson06:10:13  +  00:10:21=33,386 
59 ESPJosé PesarrodonaESPKas-Kaskol06:10:13  +  00:10:21=33,386 
60 BELFrans MintjensITAMolteni06:10:13  +  00:10:21=33,386 
61 ESPJosé GrandeESPKas-Kaskol06:10:13  +  00:10:21=33,386 
62 BELJoseph HuysmansITAMolteni06:10:13  +  00:10:21=33,386 
63 PORFernando FerreiraPRTSporting-Sottomayor06:10:13  +  00:10:21=33,386 
64 BELJosé De CauwerNLDFrisol-G.B.C.06:13:50  +  00:13:58=33,063 
65 NEDGerrie KnetemannFRAGan-Mercier-Hutchinson06:13:50  +  00:13:58=33,063 
66 ITARoberto SorliniITAFilotex06:14:25  +  00:14:33=33,011 
67 BELWilly TeirlinckFRAGitane-Campagnolo06:14:25  +  00:14:33=33,011 
68 FRAMaurice Le GuillouxFRAGitane-Campagnolo06:14:25  +  00:14:33=33,011 
69 BELLudo DelcroixITAMolteni06:14:25  +  00:14:33=33,011 
70 FRAAndré MolletPRTSporting-Sottomayor06:14:25  +  00:14:33=33,011 
71 FRARoger LegeayFRAJobo-Wolber06:14:25  +  00:14:33=33,011 
72 FRACharly RouxelFRAPeugeot-BP-Michelin06:14:25  +  00:14:33=33,011 
73 BELMarc LievensITAMolteni06:14:25  +  00:14:33=33,011 
74 FRARegis DelepineBELCarpenter Confortluxe-Flandria06:14:25  +  00:14:33=33,011 
75 BELMarc DemeyerBELCarpenter Confortluxe-Flandria06:14:25  +  00:14:33=33,011 
76 ENGBarry HobanFRAGan-Mercier-Hutchinson06:14:25  +  00:14:33=33,011 
77 FRAClaude MagniFRAJobo-Wolber06:14:25  +  00:14:33=33,011 
78 FRAAndré CorbeauFRAJobo-Wolber06:14:25  +  00:14:33=33,011 
79 ITAPietro DallaiITAFilotex06:14:25  +  00:14:33=33,011 
80 FRAJean-Pierre GenetFRAGan-Mercier-Hutchinson06:14:25  +  00:14:33=33,011 
81 FRARichard PianaroFRAJobo-Wolber06:14:25  +  00:14:33=33,011 
82 FRAJoel HauvieuxFRAJobo-Wolber06:14:25  +  00:14:33=33,011 
83 FRASerge ParsaniITABianchi-Campagnolo06:14:25  +  00:14:33=33,011 
84 ITAGiacinto SantambrogioITABianchi-Campagnolo06:14:25  +  00:14:33=33,011 
85 FRAAlain CiganaFRAJobo-Wolber06:14:25  +  00:14:33=33,011 
86 BELWalter GodefrootBELCarpenter Confortluxe-Flandria06:14:25  +  00:14:33=33,011 
87 BELRoger RosiersESPSuper Ser06:14:25  +  00:14:33=33,011 
88 BELRené DillenFRAGitane-Campagnolo06:14:25  +  00:14:33=33,011 
89 FRASylvain VasseurESPSuper Ser06:14:25  +  00:14:33=33,011 
90 FRARégis OvionFRAPeugeot-BP-Michelin06:14:25  +  00:14:33=33,011 
91 ITASandro QuintarelliITAJollyceramica06:14:25  +  00:14:33=33,011 
92 BELHerman Van SpringelBELCarpenter Confortluxe-Flandria06:14:25  +  00:14:33=33,011 
93 NEDHenk PrinsenNLDFrisol-G.B.C.06:14:25  +  00:14:33=33,011 
94 ITAMauro SimonettiITAFilotex06:14:25  +  00:14:33=33,011 
95 FRAGerard MoneyronBELCarpenter Confortluxe-Flandria06:14:25  +  00:14:33=33,011 
96 BELHerman BeysensITAMolteni06:14:25  +  00:14:33=33,011 
97 FRABernard LabourdettePRTSporting-Sottomayor06:14:25  +  00:14:33=33,011 
98 BELAlbert Van VlierbergheBELMiko-De Gribaldy06:14:25  +  00:14:33=33,011 
99 ITADonato GiulianiITAJollyceramica06:14:25  +  00:14:33=33,011 
100 FRARobert MintkiewiczFRAGitane-Campagnolo06:16:31  +  00:16:39=32,827 
101 ITALuigi CastellettiITABianchi-Campagnolo06:16:31  +  00:16:39=32,827 
102 FRAPatrick BeonFRAPeugeot-BP-Michelin06:16:31  +  00:16:39=32,827 
103 FRAJacques BoulasFRAJobo-Wolber06:16:31  +  00:16:39=32,827 
104 BELFrans Van VlierbergheBELMiko-De Gribaldy06:16:31  +  00:16:39=32,827 
105 BELRik Van LindenITABianchi-Campagnolo06:16:31  +  00:16:39=32,827 
106 FRAJean-Claude MisacFRAGan-Mercier-Hutchinson06:16:31  +  00:16:39=32,827 
107 BELKarel RottiersITAMolteni06:16:31  +  00:16:39=32,827 
108 MARAntoine GutierrezBELMiko-De Gribaldy06:16:31  +  00:16:39=32,827 
109 BELAndre DoyenBELMiko-De Gribaldy06:16:31  +  00:16:39=32,827 
110 BELRoger LoyschBELMiko-De Gribaldy06:18:53  +  00:19:01=32,622 
111 ITAPierino GavazziITAJollyceramica06:18:53  +  00:19:01=32,622 
112 ITAGiacomo BazzanITAJollyceramica06:18:53  +  00:19:01=32,622 
113 ITAGiovanni Dalla BonaITAJollyceramica06:18:53  +  00:19:01=32,622 
114 BELWilfried DavidBELCarpenter Confortluxe-Flandria06:18:53  +  00:19:01=32,622 
115 BELDaniel VerplanckeBELCarpenter Confortluxe-Flandria06:18:53  +  00:19:01=32,622 
116 DENOle RitterITAFilotex06:18:53  +  00:19:01=32,622 
117 BELEddy PeelmanESPSuper Ser06:18:53  +  00:19:01=32,622 
118 FRAGuy LeleuFRAGitane-Campagnolo06:22:49  +  00:22:57=32,287 
119 NEDCees PriemNLDFrisol-G.B.C.06:22:55  +  00:23:03=32,279 
120 PORJosé AmaroPRTSporting-Sottomayor06:22:55  +  00:23:03=32,279 
121 NEDGerard KamperNLDFrisol-G.B.C.06:22:55  +  00:23:03=32,279 
122 AUSDonald AllanNLDFrisol-G.B.C.06:22:57  +  00:23:05=32,276 
123 BELLucien De BrauwereBELMiko-De Gribaldy06:22:57  +  00:23:05=32,276 
124 NEDBen KokenNLDFrisol-G.B.C.06:24:33  +  00:24:41=32,141 
125 PORFirmino BernardinoPRTSporting-Sottomayor06:24:33  +  00:24:41=32,141 
126 ESPJulian AndianoESPSuper Ser06:27:21  +  00:27:29=31,909 

Withdrawls: 3
 
Rider
Team
Reason
26  COLAntonio MartosESPKas-KaskolDid not finish
30  ESPJuan ZuranoESPKas-KaskolDid not finish
129  NEDTheo SmitNLDFrisol-G.B.C.Exceeded time limit

Todays birthdays.

1887  Marcel Godivier
1895  Louis Thuayre
1896  Léon Devos
1932  Aniceto Utset
1935  Willy Altig
1939  Sebastián Elorza
1941  René Binggeli
1948  Gerard Moneyron
1953  Patrocinio Jiménez
1954  Pierre Bazzo
1955  Serge Beucherie
1967  Antonio Politano
1969  Sergio Barbero
1977  Luca Paolini
1980  Gregory Rast
1981  Christophe Riblon
1985  Sebastian Langeveld
1990  Johan Esteban Chaves




Visits: